createdAt,value
2023-04-29T00:01:09.177Z,77.21
2023-04-29T00:02:41.945Z,77.50
2023-04-29T00:04:14.666Z,77.44
2023-04-29T00:05:47.014Z,77.86
2023-04-29T00:07:19.631Z,78.14
2023-04-29T00:08:52.902Z,78.27
2023-04-29T00:10:25.069Z,78.65
2023-04-29T00:11:57.144Z,78.81
2023-04-29T00:13:29.409Z,78.70
2023-04-29T00:15:03.354Z,78.92
2023-04-29T00:16:35.571Z,78.82
2023-04-29T00:18:07.723Z,78.22
2023-04-29T00:19:39.905Z,78.03
2023-04-29T00:21:12.040Z,78.00
2023-04-29T00:22:44.334Z,77.83
2023-04-29T00:24:16.444Z,78.18
2023-04-29T00:25:48.537Z,78.35
2023-04-29T00:27:20.668Z,78.82
2023-04-29T00:28:52.879Z,78.82
2023-04-29T00:30:24.890Z,79.17
2023-04-29T00:31:56.968Z,78.83
2023-04-29T00:33:28.971Z,78.90
2023-04-29T00:35:01.169Z,78.98
2023-04-29T00:36:33.710Z,79.40
2023-04-29T00:38:08.542Z,79.20
2023-04-29T00:39:40.619Z,79.07
2023-04-29T00:41:12.892Z,78.89
2023-04-29T00:42:45.152Z,79.00
2023-04-29T00:44:18.062Z,79.05
2023-04-29T00:45:51.297Z,79.19
2023-04-29T00:47:23.489Z,78.95
2023-04-29T00:48:58.562Z,78.76
2023-04-29T00:50:31.252Z,79.07
2023-04-29T00:52:03.356Z,79.13
2023-04-29T00:53:35.504Z,79.21
2023-04-29T00:55:09.402Z,79.14
2023-04-29T00:56:44.256Z,79.54
2023-04-29T00:58:18.146Z,79.39
2023-04-29T00:59:50.917Z,79.30
2023-04-29T01:01:23.832Z,79.29
2023-04-29T01:02:57.561Z,79.16
2023-04-29T01:04:30.049Z,79.67
2023-04-29T01:06:26.259Z,79.68
2023-04-29T01:08:07.371Z,79.79
2023-04-29T01:09:45.041Z,79.63
2023-04-29T01:11:23.699Z,78.92
2023-04-29T01:13:12.267Z,78.83
2023-04-29T01:14:49.232Z,78.94
2023-04-29T01:16:26.122Z,79.11
2023-04-29T01:18:06.486Z,78.71
2023-04-29T01:19:58.094Z,77.91
2023-04-29T01:21:32.444Z,77.81
2023-04-29T01:23:04.586Z,77.54
2023-04-29T01:24:36.698Z,77.57
2023-04-29T01:26:08.781Z,77.77
2023-04-29T01:27:55.946Z,77.89
2023-04-29T01:29:38.710Z,77.98
2023-04-29T01:31:26.471Z,78.13
2023-04-29T01:33:07.450Z,78.37
2023-04-29T01:34:51.368Z,77.92
2023-04-29T01:37:01.292Z,78.12
2023-04-29T01:39:14.997Z,77.29
2023-04-29T01:40:57.527Z,76.76
2023-04-29T01:42:38.588Z,76.84
2023-04-29T01:44:18.981Z,77.28
2023-04-29T01:45:53.837Z,77.13
2023-04-29T01:47:26.035Z,77.05
2023-04-29T01:48:58.079Z,77.51
2023-04-29T01:50:33.232Z,77.62
2023-04-29T01:52:05.681Z,77.76
2023-04-29T01:53:37.906Z,77.45
2023-04-29T01:55:11.104Z,77.64
2023-04-29T01:56:43.663Z,77.57
2023-04-29T01:58:15.852Z,77.54
2023-04-29T01:59:48.420Z,77.73
2023-04-29T02:01:20.674Z,77.59
2023-04-29T02:02:53.044Z,77.74
2023-04-29T02:04:25.957Z,78.01
2023-04-29T02:05:59.061Z,77.93
2023-04-29T02:07:31.399Z,77.89
2023-04-29T02:09:03.630Z,77.52
2023-04-29T02:10:35.737Z,77.32
2023-04-29T02:12:08.148Z,77.38
2023-04-29T02:13:41.089Z,77.17
2023-04-29T02:15:13.352Z,77.06
2023-04-29T02:16:46.224Z,76.68
2023-04-29T02:18:18.432Z,76.78
2023-04-29T02:19:50.936Z,77.08
2023-04-29T02:21:23.349Z,77.12
2023-04-29T02:22:55.650Z,77.56
2023-04-29T02:24:27.733Z,77.87
2023-04-29T02:26:00.160Z,78.26
2023-04-29T02:27:32.260Z,78.43
2023-04-29T02:29:04.387Z,78.93
2023-04-29T02:30:36.460Z,78.96
2023-04-29T02:32:08.742Z,79.16
2023-04-29T02:33:41.789Z,79.34
2023-04-29T02:35:13.920Z,79.58
2023-04-29T02:36:45.958Z,79.92
2023-04-29T02:38:18.461Z,79.74
2023-04-29T02:39:50.733Z,80.14
2023-04-29T02:41:23.299Z,80.28
2023-04-29T02:42:55.457Z,80.55
2023-04-29T02:44:27.744Z,80.42
2023-04-29T02:46:00.801Z,80.59
2023-04-29T02:47:33.117Z,80.68
2023-04-29T02:49:06.343Z,80.86
2023-04-29T02:50:38.384Z,81.20
2023-04-29T02:52:10.392Z,81.24
2023-04-29T02:53:42.495Z,81.29
2023-04-29T02:55:14.609Z,81.14
2023-04-29T02:56:46.782Z,81.40
2023-04-29T02:58:18.851Z,81.44
2023-04-29T02:59:51.876Z,81.63
2023-04-29T03:01:24.704Z,81.66
2023-04-29T03:02:56.974Z,81.83
2023-04-29T03:04:29.347Z,81.78
2023-04-29T03:06:01.575Z,81.70
2023-04-29T03:07:33.882Z,81.79
2023-04-29T03:09:06.077Z,81.57
2023-04-29T03:10:41.388Z,81.89
2023-04-29T03:12:13.942Z,81.79
2023-04-29T03:13:46.530Z,81.93
2023-04-29T03:15:18.615Z,81.47
2023-04-29T03:16:50.945Z,81.47
2023-04-29T03:18:23.159Z,81.32
2023-04-29T03:19:55.310Z,81.27
2023-04-29T03:21:28.096Z,81.44
2023-04-29T03:23:01.441Z,81.35
2023-04-29T03:24:33.542Z,81.59
2023-04-29T03:26:06.070Z,81.64
2023-04-29T03:27:38.330Z,81.67
2023-04-29T03:29:10.546Z,81.53
2023-04-29T03:30:42.763Z,81.73
2023-04-29T03:32:14.875Z,81.74
2023-04-29T03:33:47.085Z,81.51
2023-04-29T03:35:19.293Z,81.72
2023-04-29T03:36:54.645Z,81.89
2023-04-29T03:40:06.728Z,82.37
2023-04-29T03:41:39.064Z,82.13
2023-04-29T03:43:11.356Z,82.46
2023-04-29T03:44:43.441Z,82.50
2023-04-29T03:46:15.624Z,82.59
2023-04-29T03:47:47.757Z,83.04
2023-04-29T03:49:20.021Z,83.19
2023-04-29T03:50:52.215Z,83.16
2023-04-29T03:52:24.407Z,83.02
2023-04-29T03:53:58.273Z,83.46
2023-04-29T03:55:30.536Z,83.41
2023-04-29T03:57:05.265Z,83.49
2023-04-29T03:58:37.440Z,83.43
2023-04-29T04:00:10.220Z,83.86
2023-04-29T04:01:42.506Z,83.75
2023-04-29T04:03:14.850Z,83.74
2023-04-29T04:04:47.480Z,83.56
2023-04-29T04:06:19.882Z,83.74
2023-04-29T04:07:52.985Z,84.11
2023-04-29T04:09:25.039Z,84.05
2023-04-29T04:11:03.282Z,84.06
2023-04-29T04:12:35.481Z,84.13
2023-04-29T04:14:07.939Z,83.91
2023-04-29T04:15:40.056Z,83.82
2023-04-29T04:17:12.264Z,83.18
2023-04-29T04:18:44.337Z,82.75
2023-04-29T04:20:16.517Z,82.26
2023-04-29T04:21:48.674Z,81.96
2023-04-29T04:23:20.838Z,81.75
2023-04-29T04:24:55.691Z,82.00
2023-04-29T04:26:27.758Z,82.23
2023-04-29T04:27:59.853Z,82.16
2023-04-29T04:29:32.040Z,82.34
2023-04-29T04:31:06.017Z,82.84
2023-04-29T04:32:39.653Z,82.93
2023-04-29T04:34:11.951Z,83.26
2023-04-29T04:35:44.532Z,83.56
2023-04-29T04:37:17.055Z,84.01
2023-04-29T04:38:49.161Z,83.84
2023-04-29T04:40:21.454Z,83.72
2023-04-29T04:41:53.565Z,83.38
2023-04-29T04:43:25.856Z,83.75
2023-04-29T04:44:58.050Z,83.68
2023-04-29T04:46:30.197Z,83.59
2023-04-29T04:48:02.379Z,83.71
2023-04-29T04:49:34.539Z,83.69
2023-04-29T04:51:11.373Z,83.94
2023-04-29T04:52:43.533Z,83.76
2023-04-29T04:54:15.780Z,83.79
2023-04-29T04:55:48.008Z,83.67
2023-04-29T04:57:20.088Z,83.22
2023-04-29T04:58:52.146Z,82.43
2023-04-29T05:00:24.254Z,81.74
2023-04-29T05:01:56.329Z,81.72
2023-04-29T05:03:29.129Z,81.90
2023-04-29T05:05:01.602Z,81.40
2023-04-29T05:06:33.728Z,81.29
2023-04-29T05:08:06.329Z,81.40
2023-04-29T05:09:38.395Z,81.24
2023-04-29T05:11:21.499Z,80.43
2023-04-29T05:12:53.570Z,80.05
2023-04-29T05:14:26.898Z,79.97
2023-04-29T05:15:58.947Z,79.45
2023-04-29T05:17:31.220Z,78.59
2023-04-29T05:19:03.342Z,78.64
2023-04-29T05:20:35.481Z,78.14
2023-04-29T05:22:07.709Z,77.47
2023-04-29T05:23:39.945Z,77.04
2023-04-29T05:25:12.268Z,75.86
2023-04-29T05:26:44.611Z,74.50
2023-04-29T05:28:16.778Z,73.42
2023-04-29T05:29:48.858Z,73.46
2023-04-29T05:31:21.821Z,72.88
2023-04-29T05:32:54.071Z,71.57
2023-04-29T05:34:26.847Z,71.64
2023-04-29T05:35:58.990Z,71.13
2023-04-29T05:37:32.493Z,70.56
2023-04-29T05:39:04.895Z,70.12
2023-04-29T05:40:37.011Z,70.51
2023-04-29T05:42:09.095Z,69.83
2023-04-29T05:43:41.325Z,69.57
2023-04-29T05:45:13.472Z,69.00
2023-04-29T05:46:46.782Z,68.77
2023-04-29T05:48:18.863Z,67.81
2023-04-29T05:49:51.326Z,68.34
2023-04-29T05:51:23.774Z,67.72
2023-04-29T05:52:56.918Z,67.45
2023-04-29T05:54:29.028Z,67.22
2023-04-29T05:56:01.320Z,67.44
2023-04-29T05:57:33.562Z,67.22
2023-04-29T05:59:05.691Z,66.74
2023-04-29T06:00:37.837Z,66.99
2023-04-29T06:02:11.406Z,66.44
2023-04-29T06:03:44.122Z,66.60
2023-04-29T06:05:16.615Z,66.50
2023-04-29T06:06:49.226Z,66.33
2023-04-29T06:08:21.667Z,65.18
2023-04-29T06:09:54.338Z,65.78
2023-04-29T06:11:27.253Z,65.45
2023-04-29T06:12:59.505Z,64.62
2023-04-29T06:14:31.576Z,63.87
2023-04-29T06:16:04.086Z,63.79
2023-04-29T06:17:36.269Z,63.94
2023-04-29T06:19:08.327Z,63.96
2023-04-29T06:20:40.478Z,62.64
2023-04-29T06:22:12.810Z,59.64
2023-04-29T06:23:45.707Z,59.15
2023-04-29T06:25:20.272Z,59.21
2023-04-29T06:26:52.785Z,59.76
2023-04-29T06:28:25.139Z,59.69
2023-04-29T06:29:57.213Z,60.17
2023-04-29T06:31:29.727Z,60.38
2023-04-29T06:33:02.063Z,60.27
2023-04-29T06:34:34.435Z,59.85
2023-04-29T06:36:06.775Z,59.35
2023-04-29T06:37:38.937Z,59.26
2023-04-29T06:39:11.000Z,58.35
2023-04-29T06:40:43.218Z,58.23
2023-04-29T06:43:49.058Z,58.25
2023-04-29T06:45:21.250Z,56.97
2023-04-29T06:46:53.622Z,56.90
2023-04-29T06:48:25.975Z,55.75
2023-04-29T06:49:58.096Z,54.54
2023-04-29T06:51:30.343Z,54.26
2023-04-29T06:53:02.425Z,54.54
2023-04-29T06:54:34.757Z,54.29
2023-04-29T06:56:07.352Z,55.13
2023-04-29T06:57:39.571Z,55.40
2023-04-29T06:59:13.066Z,55.40
2023-04-29T07:00:46.901Z,54.61
2023-04-29T07:02:19.374Z,55.33
2023-04-29T07:03:51.780Z,55.11
2023-04-29T07:05:24.205Z,54.41
2023-04-29T07:06:56.501Z,54.71
2023-04-29T07:08:29.177Z,54.37
2023-04-29T07:10:01.438Z,53.87
2023-04-29T07:11:33.965Z,53.70
2023-04-29T07:13:06.117Z,53.63
2023-04-29T07:14:38.496Z,53.09
2023-04-29T07:16:22.049Z,52.91
2023-04-29T07:17:54.554Z,53.03
2023-04-29T07:19:26.791Z,52.95
2023-04-29T07:21:02.671Z,53.90
2023-04-29T07:22:34.796Z,54.52
2023-04-29T07:24:07.280Z,53.62
2023-04-29T07:25:39.358Z,50.94
2023-04-29T07:27:11.807Z,50.21
2023-04-29T07:28:44.862Z,50.77
2023-04-29T07:30:17.182Z,51.26
2023-04-29T07:31:49.629Z,52.08
2023-04-29T07:33:21.802Z,50.08
2023-04-29T07:34:54.333Z,50.03
2023-04-29T07:36:28.721Z,49.68
2023-04-29T07:38:00.843Z,50.21
2023-04-29T07:39:33.207Z,51.01
2023-04-29T07:41:05.430Z,50.86
2023-04-29T07:42:37.773Z,49.66
2023-04-29T07:44:10.022Z,49.84
2023-04-29T07:45:42.230Z,48.47
2023-04-29T07:47:14.516Z,49.04
2023-04-29T07:48:46.896Z,51.56
2023-04-29T07:50:19.229Z,50.73
2023-04-29T07:51:51.419Z,49.09
2023-04-29T07:53:23.785Z,48.98
2023-04-29T07:54:59.091Z,49.09
2023-04-29T07:56:32.221Z,45.96
2023-04-29T07:58:04.521Z,44.46
2023-04-29T07:59:36.980Z,46.42
2023-04-29T08:01:12.645Z,46.76
2023-04-29T08:02:45.264Z,46.38
2023-04-29T08:04:17.883Z,46.29
2023-04-29T08:05:51.716Z,46.76
2023-04-29T08:07:26.526Z,47.14
2023-04-29T08:08:58.601Z,47.18
2023-04-29T08:10:31.375Z,46.33
2023-04-29T08:12:03.555Z,46.55
2023-04-29T08:13:35.724Z,44.66
2023-04-29T08:15:09.770Z,42.81
2023-04-29T08:16:42.546Z,42.65
2023-04-29T08:18:14.675Z,40.81
2023-04-29T08:19:47.228Z,43.01
2023-04-29T08:21:19.867Z,42.89
2023-04-29T08:22:52.181Z,44.55
2023-04-29T08:24:24.411Z,44.97
2023-04-29T08:25:56.638Z,47.83
2023-04-29T08:27:29.027Z,45.10
2023-04-29T08:29:01.347Z,44.97
2023-04-29T08:30:34.086Z,42.00
2023-04-29T08:32:06.666Z,42.92
2023-04-29T08:33:39.043Z,41.67
2023-04-29T08:35:11.312Z,42.67
2023-04-29T08:36:43.377Z,42.33
2023-04-29T08:38:16.320Z,43.42
2023-04-29T08:39:48.622Z,43.17
2023-04-29T08:41:20.910Z,39.82
2023-04-29T08:42:53.968Z,43.58
2023-04-29T08:44:30.608Z,42.77
2023-04-29T08:46:03.663Z,39.01
2023-04-29T08:47:36.268Z,38.50
2023-04-29T08:49:08.481Z,38.32
2023-04-29T08:50:42.397Z,37.54
2023-04-29T08:52:14.666Z,35.36
2023-04-29T08:53:46.822Z,36.73
2023-04-29T08:55:19.329Z,37.13
2023-04-29T08:56:52.500Z,37.10
2023-04-29T08:58:26.908Z,38.38
2023-04-29T09:00:01.443Z,38.08
2023-04-29T09:01:34.029Z,37.05
2023-04-29T09:03:35.801Z,37.90
2023-04-29T09:05:11.846Z,36.51
2023-04-29T09:06:44.326Z,36.58
2023-04-29T09:08:17.508Z,39.80
2023-04-29T09:09:50.369Z,38.36
2023-04-29T09:11:23.072Z,35.52
2023-04-29T09:12:59.011Z,36.56
2023-04-29T09:14:33.965Z,36.93
2023-04-29T09:19:12.308Z,36.19
2023-04-29T09:20:44.578Z,35.84
2023-04-29T09:22:16.885Z,37.47
2023-04-29T09:23:55.758Z,37.06
2023-04-29T09:25:28.387Z,35.91
2023-04-29T09:27:01.362Z,35.91
2023-04-29T09:28:34.361Z,37.24
2023-04-29T09:30:07.168Z,36.75
2023-04-29T09:31:42.570Z,34.26
2023-04-29T09:33:15.906Z,34.49
2023-04-29T09:34:47.835Z,33.01
2023-04-29T09:36:49.230Z,31.95
2023-04-29T09:38:22.662Z,30.73
2023-04-29T09:39:55.703Z,31.72
2023-04-29T09:41:28.003Z,31.66
2023-04-29T09:43:00.205Z,34.24
2023-04-29T09:44:38.440Z,34.84
2023-04-29T09:46:13.892Z,33.36
2023-04-29T09:47:46.246Z,33.32
2023-04-29T09:49:29.168Z,33.56
2023-04-29T09:51:03.679Z,32.72
2023-04-29T09:52:44.907Z,33.71
2023-04-29T09:56:03.498Z,31.67
2023-04-29T09:57:45.349Z,31.75
2023-04-29T09:59:18.468Z,31.09
2023-04-29T10:00:50.602Z,31.71
2023-04-29T10:02:24.380Z,29.98
2023-04-29T10:03:57.551Z,30.22
2023-04-29T10:05:31.112Z,30.92
2023-04-29T10:07:04.070Z,29.69
2023-04-29T10:08:36.462Z,29.63
2023-04-29T10:10:11.294Z,30.00
2023-04-29T10:11:45.083Z,28.47
2023-04-29T10:13:17.320Z,30.29
2023-04-29T10:15:04.978Z,29.89
2023-04-29T10:16:42.357Z,30.03
2023-04-29T10:18:22.219Z,30.77
2023-04-29T10:20:07.854Z,30.44
2023-04-29T10:21:40.259Z,31.23
2023-04-29T10:23:14.974Z,30.95
2023-04-29T10:24:48.528Z,32.44
2023-04-29T10:26:21.497Z,31.58
2023-04-29T10:27:54.280Z,30.42
2023-04-29T10:29:28.960Z,35.24
2023-04-29T10:31:05.127Z,31.94
2023-04-29T10:34:14.411Z,33.58
2023-04-29T10:35:49.826Z,30.01
2023-04-29T10:37:22.338Z,36.94
2023-04-29T10:38:57.824Z,33.41
2023-04-29T10:40:49.211Z,36.19
2023-04-29T10:42:41.520Z,34.53
2023-04-29T10:44:14.679Z,31.79
2023-04-29T10:45:47.117Z,30.75
2023-04-29T10:47:20.486Z,29.74
2023-04-29T10:48:56.692Z,30.80
2023-04-29T10:50:33.381Z,31.36
2023-04-29T10:52:05.736Z,32.74
2023-04-29T10:54:03.946Z,31.93
2023-04-29T10:55:39.525Z,32.60
2023-04-29T10:57:21.185Z,32.03
2023-04-29T10:58:53.356Z,32.64
2023-04-29T11:00:31.063Z,29.78
2023-04-29T11:02:03.222Z,30.13
2023-04-29T11:03:56.106Z,29.16
2023-04-29T11:05:34.972Z,29.17
2023-04-29T11:07:07.193Z,34.54
2023-04-29T11:08:46.286Z,34.88
2023-04-29T11:10:18.666Z,35.24
2023-04-29T11:11:56.791Z,35.24
2023-04-29T11:13:31.103Z,35.48
2023-04-29T11:15:06.602Z,34.75
2023-04-29T11:16:38.883Z,33.23
2023-04-29T11:18:12.174Z,33.39
2023-04-29T11:19:49.512Z,32.58
2023-04-29T11:21:22.910Z,32.94
2023-04-29T11:22:55.734Z,31.56
2023-04-29T11:24:28.100Z,34.12
2023-04-29T11:26:00.535Z,34.71
2023-04-29T11:27:33.496Z,31.16
2023-04-29T11:29:06.677Z,32.43
2023-04-29T11:30:39.242Z,32.29
2023-04-29T11:32:11.464Z,34.93
2023-04-29T11:33:43.817Z,33.24
2023-04-29T11:35:17.729Z,33.10
2023-04-29T11:36:50.014Z,32.68
2023-04-29T11:38:26.591Z,33.26
2023-04-29T11:40:01.724Z,34.19
2023-04-29T11:41:34.071Z,33.33
2023-04-29T11:43:06.950Z,34.04
2023-04-29T11:44:39.111Z,32.42
2023-04-29T11:46:15.402Z,31.93
2023-04-29T11:47:48.817Z,32.58
2023-04-29T11:49:24.137Z,32.89
2023-04-29T11:51:00.469Z,32.87
2023-04-29T11:52:33.567Z,29.74
2023-04-29T11:54:07.611Z,28.95
2023-04-29T11:55:43.715Z,27.29
2023-04-29T11:57:16.123Z,29.96
2023-04-29T11:58:48.220Z,31.41
2023-04-29T12:00:20.687Z,31.20
2023-04-29T12:01:52.971Z,30.04
2023-04-29T12:03:25.340Z,30.92
2023-04-29T12:04:59.008Z,27.88
2023-04-29T12:06:32.144Z,28.80
2023-04-29T12:08:04.584Z,28.72
2023-04-29T12:09:44.359Z,32.77
2023-04-29T12:11:17.684Z,29.44
2023-04-29T12:12:49.582Z,29.54
2023-04-29T12:14:22.054Z,28.81
2023-04-29T12:15:54.693Z,29.12
2023-04-29T12:17:26.896Z,31.73
2023-04-29T12:18:59.972Z,29.80
2023-04-29T12:20:32.288Z,30.15
2023-04-29T12:22:06.733Z,31.11
2023-04-29T12:23:41.801Z,31.82
2023-04-29T12:25:14.176Z,32.41
2023-04-29T12:26:47.368Z,31.11
2023-04-29T12:28:20.156Z,31.61
2023-04-29T12:29:55.268Z,32.04
2023-04-29T12:31:36.973Z,31.32
2023-04-29T12:33:10.240Z,28.65
2023-04-29T12:34:42.448Z,29.70
2023-04-29T12:36:19.287Z,29.80
2023-04-29T12:37:51.969Z,28.33
2023-04-29T12:39:24.162Z,29.20
2023-04-29T12:40:57.467Z,31.44
2023-04-29T12:42:35.261Z,31.55
2023-04-29T12:44:08.279Z,30.62
2023-04-29T12:45:41.184Z,29.43
2023-04-29T12:47:14.209Z,29.82
2023-04-29T12:48:47.840Z,30.90
2023-04-29T12:50:20.379Z,30.89
2023-04-29T12:51:52.481Z,30.61
2023-04-29T12:53:24.937Z,31.20
2023-04-29T12:54:57.823Z,30.84
2023-04-29T12:56:33.345Z,31.06
2023-04-29T12:58:06.498Z,31.88
2023-04-29T12:59:39.400Z,30.93
2023-04-29T13:01:12.077Z,31.12
2023-04-29T13:02:44.383Z,32.29
2023-04-29T13:04:16.927Z,31.30
2023-04-29T13:05:51.909Z,31.84
2023-04-29T13:07:25.062Z,30.80
2023-04-29T13:08:57.366Z,31.13
2023-04-29T13:10:29.616Z,30.69
2023-04-29T13:12:02.500Z,30.93
2023-04-29T13:13:35.033Z,30.22
2023-04-29T13:15:11.853Z,30.52
2023-04-29T13:16:44.081Z,31.50
2023-04-29T13:18:16.265Z,32.24
2023-04-29T13:19:51.737Z,33.03
2023-04-29T13:21:24.464Z,38.38
2023-04-29T13:22:56.638Z,38.06
2023-04-29T13:24:28.849Z,38.82
2023-04-29T13:26:01.469Z,39.78
2023-04-29T13:27:35.257Z,39.89
2023-04-29T13:29:07.765Z,40.93
2023-04-29T13:30:40.227Z,42.16
2023-04-29T13:32:12.552Z,41.32
2023-04-29T13:33:44.875Z,41.02
2023-04-29T13:35:17.295Z,41.28
2023-04-29T13:36:49.464Z,41.50
2023-04-29T13:38:22.905Z,43.09
2023-04-29T13:39:57.508Z,42.47
2023-04-29T13:41:33.600Z,41.42
2023-04-29T13:43:09.566Z,41.10
2023-04-29T13:44:52.418Z,41.27
2023-04-29T13:46:25.905Z,40.70
2023-04-29T13:48:09.456Z,40.72
2023-04-29T13:52:09.815Z,40.85
2023-04-29T13:53:51.435Z,41.06
2023-04-29T13:59:59.278Z,42.95
2023-04-29T14:03:08.200Z,42.83
2023-04-29T14:04:40.698Z,42.88
2023-04-29T14:06:13.069Z,42.91
2023-04-29T14:07:45.351Z,43.11
2023-04-29T14:09:19.072Z,43.21
2023-04-29T14:10:51.274Z,44.45
2023-04-29T14:12:23.505Z,44.30
2023-04-29T14:13:55.793Z,42.55
2023-04-29T14:15:28.526Z,42.57
2023-04-29T14:17:01.725Z,42.79
2023-04-29T14:18:33.983Z,43.47
2023-04-29T14:20:06.862Z,43.23
2023-04-29T14:21:39.097Z,43.54
2023-04-29T14:23:11.553Z,44.17
2023-04-29T14:24:43.736Z,44.98
2023-04-29T14:26:27.741Z,45.32
2023-04-29T14:28:02.709Z,46.09
2023-04-29T14:29:34.903Z,47.17
2023-04-29T14:31:07.075Z,47.79
2023-04-29T14:32:39.301Z,47.53
2023-04-29T14:34:11.408Z,48.81
2023-04-29T14:35:43.510Z,49.04
2023-04-29T14:37:15.786Z,49.13
2023-04-29T14:38:47.881Z,49.17
2023-04-29T14:40:20.132Z,49.54
2023-04-29T14:41:52.346Z,50.25
2023-04-29T14:43:24.727Z,50.15
2023-04-29T14:44:57.342Z,50.59
2023-04-29T14:46:30.034Z,51.05
2023-04-29T14:48:02.235Z,51.58
2023-04-29T14:49:34.568Z,53.07
2023-04-29T14:51:06.952Z,53.69
2023-04-29T14:52:39.161Z,53.95
2023-04-29T14:54:12.169Z,54.91
2023-04-29T14:55:44.398Z,54.76
2023-04-29T14:57:16.650Z,54.96
2023-04-29T14:58:49.045Z,55.80
2023-04-29T15:00:21.912Z,55.68
2023-04-29T15:01:54.094Z,55.84
2023-04-29T15:03:26.767Z,55.40
2023-04-29T15:04:59.160Z,55.73
2023-04-29T15:06:32.753Z,55.51
2023-04-29T15:08:05.169Z,55.48
2023-04-29T15:09:37.336Z,55.21
2023-04-29T15:11:09.532Z,54.90
2023-04-29T15:12:41.890Z,54.72
2023-04-29T15:14:14.021Z,55.30
2023-04-29T15:15:46.388Z,55.51
2023-04-29T15:17:19.074Z,57.34
2023-04-29T15:18:51.155Z,56.51
2023-04-29T15:20:23.429Z,55.62
2023-04-29T15:21:55.560Z,55.49
2023-04-29T15:23:27.683Z,55.19
2023-04-29T15:24:59.817Z,56.06
2023-04-29T15:26:33.493Z,56.70
2023-04-29T15:28:06.216Z,58.20
2023-04-29T15:29:39.069Z,57.50
2023-04-29T15:31:11.294Z,57.98
2023-04-29T15:32:43.916Z,57.89
2023-04-29T15:34:16.228Z,57.84
2023-04-29T15:35:48.514Z,56.96
2023-04-29T15:37:21.225Z,56.44
2023-04-29T15:38:57.780Z,58.11
2023-04-29T15:40:30.185Z,59.19
2023-04-29T15:42:04.379Z,60.27
2023-04-29T15:43:36.500Z,59.49
2023-04-29T15:45:09.461Z,59.00
2023-04-29T15:46:41.673Z,58.22
2023-04-29T15:48:13.775Z,57.56
2023-04-29T15:49:46.103Z,57.20
2023-04-29T15:51:18.313Z,58.16
2023-04-29T15:52:55.534Z,58.95
2023-04-29T15:54:27.640Z,59.03
2023-04-29T15:56:00.031Z,58.64
2023-04-29T15:57:32.297Z,57.86
2023-04-29T15:59:04.683Z,57.34
2023-04-29T16:00:36.796Z,57.29
2023-04-29T16:02:11.309Z,57.12
2023-04-29T16:03:43.481Z,57.23
2023-04-29T16:05:15.771Z,60.17
2023-04-29T16:06:47.926Z,58.75
2023-04-29T16:08:22.705Z,58.06
2023-04-29T16:09:55.127Z,57.89
2023-04-29T16:11:27.476Z,57.77
2023-04-29T16:12:59.555Z,58.06
2023-04-29T16:14:31.864Z,58.11
2023-04-29T16:16:04.122Z,58.45
2023-04-29T16:17:36.280Z,58.25
2023-04-29T16:19:09.266Z,58.35
2023-04-29T16:20:41.981Z,58.41
2023-04-29T16:22:14.242Z,58.34
2023-04-29T16:23:46.807Z,58.79
2023-04-29T16:25:18.928Z,59.07
2023-04-29T16:26:51.172Z,59.20
2023-04-29T16:28:23.451Z,59.35
2023-04-29T16:29:56.090Z,60.34
2023-04-29T16:31:29.590Z,60.38
2023-04-29T16:33:01.805Z,60.77
2023-04-29T16:34:34.141Z,61.45
2023-04-29T16:36:07.096Z,61.57
2023-04-29T16:37:39.690Z,62.63
2023-04-29T16:39:11.952Z,63.22
2023-04-29T16:40:44.001Z,64.20
2023-04-29T16:42:16.234Z,65.06
2023-04-29T16:43:48.478Z,65.33
2023-04-29T16:45:23.577Z,65.32
2023-04-29T16:46:56.048Z,64.73
2023-04-29T16:48:28.985Z,65.18
2023-04-29T16:50:02.763Z,65.48
2023-04-29T16:51:35.252Z,65.87
2023-04-29T16:53:07.798Z,66.15
2023-04-29T16:54:39.998Z,66.71
2023-04-29T16:56:12.734Z,66.67
2023-04-29T16:57:44.983Z,67.40
2023-04-29T16:59:17.174Z,67.83
2023-04-29T17:00:49.556Z,67.74
2023-04-29T17:02:22.252Z,67.90
2023-04-29T17:03:54.585Z,68.09
2023-04-29T17:05:28.019Z,68.02
2023-04-29T17:07:01.760Z,67.78
2023-04-29T17:08:33.887Z,67.39
2023-04-29T17:10:07.454Z,67.45
2023-04-29T17:11:39.638Z,68.01
2023-04-29T17:13:11.759Z,67.70
2023-04-29T17:14:44.695Z,68.08
2023-04-29T17:16:17.285Z,68.79
2023-04-29T17:17:49.678Z,69.14
2023-04-29T17:19:21.881Z,69.51
2023-04-29T17:22:27.202Z,69.91
2023-04-29T17:23:59.391Z,70.22
2023-04-29T17:25:31.909Z,69.82
2023-04-29T17:27:04.272Z,70.06
2023-04-29T17:28:36.491Z,70.51
2023-04-29T17:30:09.372Z,70.89
2023-04-29T17:31:54.671Z,71.00
2023-04-29T17:33:34.283Z,70.50
2023-04-29T17:35:09.846Z,71.12
2023-04-29T17:36:42.032Z,71.68
2023-04-29T17:38:14.257Z,71.95
2023-04-29T17:39:46.712Z,72.17
2023-04-29T17:41:18.742Z,73.00
2023-04-29T17:42:53.211Z,73.06
2023-04-29T17:44:28.124Z,73.10
2023-04-29T17:46:08.352Z,72.37
2023-04-29T17:47:40.824Z,72.74
2023-04-29T17:49:12.952Z,72.87
2023-04-29T17:50:45.878Z,72.61
2023-04-29T17:52:21.554Z,72.00
2023-04-29T17:53:54.639Z,73.14
2023-04-29T17:55:26.892Z,74.08
2023-04-29T17:56:59.527Z,74.86
2023-04-29T17:58:31.673Z,75.12
2023-04-29T18:00:05.577Z,75.38
2023-04-29T18:01:37.938Z,75.36
2023-04-29T18:03:11.596Z,75.57
2023-04-29T18:04:44.341Z,75.85
2023-04-29T18:06:16.751Z,76.40
2023-04-29T18:07:49.380Z,76.74
2023-04-29T18:09:21.788Z,76.58
2023-04-29T18:10:53.963Z,76.33
2023-04-29T18:12:26.114Z,75.61
2023-04-29T18:14:01.105Z,74.91
2023-04-29T18:15:33.706Z,74.74
2023-04-29T18:17:09.415Z,74.12
2023-04-29T18:18:41.602Z,73.95
2023-04-29T18:20:14.213Z,73.38
2023-04-29T18:21:46.389Z,73.97
2023-04-29T18:23:18.441Z,74.50
2023-04-29T18:24:50.704Z,73.87
2023-04-29T18:26:24.236Z,73.24
2023-04-29T18:28:07.747Z,72.22
2023-04-29T18:29:48.671Z,71.89
2023-04-29T18:31:27.044Z,72.69
2023-04-29T18:33:04.894Z,72.99
2023-04-29T18:34:38.501Z,73.38
2023-04-29T18:36:12.212Z,74.49
2023-04-29T18:37:45.407Z,74.95
2023-04-29T18:39:21.557Z,75.17
2023-04-29T18:40:53.782Z,75.20
2023-04-29T18:42:26.513Z,75.33
2023-04-29T18:56:38.953Z,76.85
2023-04-29T18:58:12.552Z,76.85
2023-04-29T18:59:45.166Z,77.12
2023-04-29T19:01:19.947Z,77.21
2023-04-29T19:02:52.657Z,77.42
2023-04-29T19:04:24.983Z,77.66
2023-04-29T19:05:58.355Z,77.81
2023-04-29T19:07:30.455Z,77.81
2023-04-29T19:09:02.592Z,77.95
2023-04-29T19:10:35.108Z,78.19
2023-04-29T19:12:09.281Z,78.43
2023-04-29T19:13:41.512Z,78.84
2023-04-29T19:15:13.859Z,79.27
2023-04-29T19:16:46.241Z,79.63
2023-04-29T19:18:20.515Z,79.51
2023-04-29T19:19:52.790Z,79.40
2023-04-29T19:21:25.191Z,79.49
2023-04-29T19:22:57.370Z,79.51
2023-04-29T19:24:29.477Z,79.46
2023-04-29T19:26:01.602Z,79.20
2023-04-29T19:27:33.714Z,78.87
2023-04-29T19:29:06.076Z,78.56
2023-04-29T19:30:38.295Z,78.33
2023-04-29T19:32:10.438Z,78.09
2023-04-29T19:33:42.682Z,77.87
2023-04-29T19:35:14.886Z,77.81
2023-04-29T19:36:47.009Z,78.38
2023-04-29T19:38:19.437Z,79.15
2023-04-29T19:39:51.938Z,79.39
2023-04-29T19:41:25.871Z,79.93
2023-04-29T19:42:57.964Z,80.12
2023-04-29T19:44:30.502Z,80.52
2023-04-29T19:46:02.692Z,80.58
2023-04-29T19:47:35.339Z,80.85
2023-04-29T19:49:08.457Z,80.92
2023-04-29T19:50:40.736Z,80.86
2023-04-29T19:52:13.674Z,80.53
2023-04-29T19:53:45.780Z,80.54
2023-04-29T19:55:18.036Z,80.53
2023-04-29T19:56:50.189Z,80.48
2023-04-29T19:58:22.346Z,80.14
2023-04-29T19:59:54.778Z,80.30
2023-04-29T20:01:27.290Z,80.33
2023-04-29T20:02:59.798Z,80.69
2023-04-29T20:04:32.259Z,80.94
2023-04-29T20:06:04.645Z,81.22
2023-04-29T20:07:40.616Z,81.61
2023-04-29T20:09:13.094Z,81.63
2023-04-29T20:10:46.637Z,81.63
2023-04-29T20:12:18.809Z,81.87
2023-04-29T20:13:53.550Z,81.65
2023-04-29T20:15:26.128Z,81.97
2023-04-29T20:17:00.399Z,81.62
2023-04-29T20:18:33.165Z,81.92
2023-04-29T20:20:09.516Z,82.11
2023-04-29T20:21:42.544Z,82.18
2023-04-29T20:23:14.690Z,82.45
2023-04-29T20:24:46.974Z,82.42
2023-04-29T20:26:19.808Z,82.68
2023-04-29T20:27:52.234Z,82.59
2023-04-29T20:29:25.334Z,82.60
2023-04-29T20:30:58.186Z,82.67
2023-04-29T20:32:34.920Z,82.64
2023-04-29T20:34:07.102Z,82.56
2023-04-29T20:35:39.290Z,82.73
2023-04-29T20:37:11.427Z,82.78
2023-04-29T20:38:44.224Z,82.91